sensor_id;sensor_type;location;lat;lon;timestamp;P1;durP1;ratioP1;P2;durP2;ratioP2
22270;SDS011;11304;53.520;10.104;2023-11-19T00:01:23;13.02;;;9.32;;
22270;SDS011;11304;53.520;10.104;2023-11-19T00:03:49;11.18;;;8.15;;
22270;SDS011;11304;53.520;10.104;2023-11-19T00:06:15;11.95;;;7.88;;
22270;SDS011;11304;53.520;10.104;2023-11-19T00:08:42;11.05;;;7.95;;
22270;SDS011;11304;53.520;10.104;2023-11-19T00:11:08;10.98;;;7.10;;
22270;SDS011;11304;53.520;10.104;2023-11-19T00:13:36;10.00;;;6.97;;
22270;SDS011;11304;53.520;10.104;2023-11-19T00:16:02;9.38;;;7.18;;
22270;SDS011;11304;53.520;10.104;2023-11-19T00:20:57;8.65;;;6.55;;
22270;SDS011;11304;53.520;10.104;2023-11-19T00:23:23;10.02;;;7.25;;
22270;SDS011;11304;53.520;10.104;2023-11-19T00:25:50;11.35;;;7.53;;
22270;SDS011;11304;53.520;10.104;2023-11-19T00:28:16;9.10;;;7.18;;
22270;SDS011;11304;53.520;10.104;2023-11-19T00:30:42;10.15;;;7.25;;
22270;SDS011;11304;53.520;10.104;2023-11-19T00:33:08;7.47;;;5.75;;
22270;SDS011;11304;53.520;10.104;2023-11-19T00:35:34;7.75;;;6.00;;
22270;SDS011;11304;53.520;10.104;2023-11-19T00:38:00;8.10;;;5.68;;
22270;SDS011;11304;53.520;10.104;2023-11-19T00:40:28;7.75;;;5.97;;
22270;SDS011;11304;53.520;10.104;2023-11-19T00:42:54;7.80;;;5.90;;
22270;SDS011;11304;53.520;10.104;2023-11-19T00:45:20;6.80;;;5.22;;
22270;SDS011;11304;53.520;10.104;2023-11-19T00:47:46;7.30;;;5.00;;
22270;SDS011;11304;53.520;10.104;2023-11-19T00:50:12;5.80;;;4.60;;
22270;SDS011;11304;53.520;10.104;2023-11-19T00:52:38;7.97;;;4.93;;
22270;SDS011;11304;53.520;10.104;2023-11-19T00:55:05;7.95;;;5.70;;
22270;SDS011;11304;53.520;10.104;2023-11-19T00:57:31;8.35;;;5.72;;
22270;SDS011;11304;53.520;10.104;2023-11-19T00:59:57;7.00;;;5.10;;
22270;SDS011;11304;53.520;10.104;2023-11-19T01:02:24;5.78;;;4.35;;
22270;SDS011;11304;53.520;10.104;2023-11-19T01:04:50;7.20;;;4.93;;
22270;SDS011;11304;53.520;10.104;2023-11-19T01:07:17;6.47;;;5.00;;
22270;SDS011;11304;53.520;10.104;2023-11-19T01:09:43;4.95;;;4.30;;
22270;SDS011;11304;53.520;10.104;2023-11-19T01:12:09;5.88;;;4.45;;
22270;SDS011;11304;53.520;10.104;2023-11-19T01:14:35;5.85;;;4.32;;
22270;SDS011;11304;53.520;10.104;2023-11-19T01:17:02;6.78;;;4.45;;
22270;SDS011;11304;53.520;10.104;2023-11-19T01:19:29;4.68;;;3.70;;
22270;SDS011;11304;53.520;10.104;2023-11-19T01:21:55;4.95;;;3.30;;
22270;SDS011;11304;53.520;10.104;2023-11-19T01:24:21;5.53;;;3.85;;
22270;SDS011;11304;53.520;10.104;2023-11-19T01:26:48;4.15;;;3.30;;
22270;SDS011;11304;53.520;10.104;2023-11-19T01:29:14;7.53;;;3.58;;
22270;SDS011;11304;53.520;10.104;2023-11-19T01:31:45;3.78;;;3.00;;
22270;SDS011;11304;53.520;10.104;2023-11-19T01:34:12;4.50;;;3.50;;
22270;SDS011;11304;53.520;10.104;2023-11-19T01:36:38;4.35;;;3.40;;
22270;SDS011;11304;53.520;10.104;2023-11-19T01:39:04;3.72;;;2.92;;
22270;SDS011;11304;53.520;10.104;2023-11-19T01:41:36;5.18;;;3.13;;
22270;SDS011;11304;53.520;10.104;2023-11-19T01:44:06;3.33;;;2.65;;
22270;SDS011;11304;53.520;10.104;2023-11-19T01:46:32;5.50;;;3.13;;
22270;SDS011;11304;53.520;10.104;2023-11-19T01:48:58;5.03;;;2.83;;
22270;SDS011;11304;53.520;10.104;2023-11-19T01:51:25;3.47;;;2.92;;
22270;SDS011;11304;53.520;10.104;2023-11-19T01:53:52;3.90;;;2.72;;
22270;SDS011;11304;53.520;10.104;2023-11-19T01:56:18;4.93;;;2.70;;
22270;SDS011;11304;53.520;10.104;2023-11-19T01:58:46;4.35;;;2.63;;
22270;SDS011;11304;53.520;10.104;2023-11-19T02:01:14;3.25;;;2.38;;
22270;SDS011;11304;53.520;10.104;2023-11-19T02:03:40;3.97;;;2.33;;
22270;SDS011;11304;53.520;10.104;2023-11-19T02:06:06;3.60;;;2.47;;
22270;SDS011;11304;53.520;10.104;2023-11-19T02:08:35;3.25;;;2.38;;
22270;SDS011;11304;53.520;10.104;2023-11-19T02:11:02;4.07;;;2.22;;
22270;SDS011;11304;53.520;10.104;2023-11-19T02:13:28;3.08;;;2.28;;
22270;SDS011;11304;53.520;10.104;2023-11-19T02:15:54;2.83;;;2.00;;
22270;SDS011;11304;53.520;10.104;2023-11-19T02:18:24;2.35;;;1.80;;
22270;SDS011;11304;53.520;10.104;2023-11-19T02:20:53;2.10;;;1.75;;
22270;SDS011;11304;53.520;10.104;2023-11-19T02:23:20;2.28;;;1.75;;
22270;SDS011;11304;53.520;10.104;2023-11-19T02:25:47;2.15;;;1.60;;
22270;SDS011;11304;53.520;10.104;2023-11-19T02:30:41;2.63;;;2.08;;
22270;SDS011;11304;53.520;10.104;2023-11-19T02:33:07;2.72;;;1.85;;
22270;SDS011;11304;53.520;10.104;2023-11-19T02:35:33;3.10;;;2.08;;
22270;SDS011;11304;53.520;10.104;2023-11-19T02:38:00;2.50;;;1.75;;
22270;SDS011;11304;53.520;10.104;2023-11-19T02:40:26;2.75;;;1.88;;
22270;SDS011;11304;53.520;10.104;2023-11-19T02:42:52;2.17;;;1.67;;
22270;SDS011;11304;53.520;10.104;2023-11-19T02:45:20;2.55;;;1.85;;
22270;SDS011;11304;53.520;10.104;2023-11-19T02:47:47;3.28;;;1.67;;
22270;SDS011;11304;53.520;10.104;2023-11-19T02:50:13;3.65;;;1.70;;
22270;SDS011;11304;53.520;10.104;2023-11-19T02:52:42;2.47;;;1.88;;
22270;SDS011;11304;53.520;10.104;2023-11-19T02:55:08;2.13;;;1.90;;
22270;SDS011;11304;53.520;10.104;2023-11-19T02:57:35;2.53;;;1.75;;
22270;SDS011;11304;53.520;10.104;2023-11-19T03:00:01;2.58;;;1.90;;
22270;SDS011;11304;53.520;10.104;2023-11-19T03:02:38;2.63;;;1.67;;
22270;SDS011;11304;53.520;10.104;2023-11-19T03:05:09;2.03;;;1.48;;
22270;SDS011;11304;53.520;10.104;2023-11-19T03:07:36;2.33;;;1.35;;
22270;SDS011;11304;53.520;10.104;2023-11-19T03:10:02;3.95;;;1.67;;
22270;SDS011;11304;53.520;10.104;2023-11-19T03:12:30;1.48;;;1.25;;
22270;SDS011;11304;53.520;10.104;2023-11-19T03:14:56;1.65;;;1.20;;
22270;SDS011;11304;53.520;10.104;2023-11-19T03:17:23;1.80;;;1.40;;
22270;SDS011;11304;53.520;10.104;2023-11-19T03:19:49;1.52;;;1.27;;
22270;SDS011;11304;53.520;10.104;2023-11-19T03:22:15;2.22;;;1.60;;
22270;SDS011;11304;53.520;10.104;2023-11-19T03:24:41;2.40;;;1.65;;
22270;SDS011;11304;53.520;10.104;2023-11-19T03:27:07;1.52;;;1.23;;
22270;SDS011;11304;53.520;10.104;2023-11-19T03:29:34;2.13;;;1.60;;
22270;SDS011;11304;53.520;10.104;2023-11-19T03:32:00;4.93;;;1.70;;
22270;SDS011;11304;53.520;10.104;2023-11-19T03:34:26;1.92;;;1.58;;
22270;SDS011;11304;53.520;10.104;2023-11-19T03:36:52;2.20;;;1.50;;
22270;SDS011;11304;53.520;10.104;2023-11-19T03:39:18;7.30;;;1.75;;
22270;SDS011;11304;53.520;10.104;2023-11-19T03:41:47;2.42;;;1.73;;
22270;SDS011;11304;53.520;10.104;2023-11-19T03:44:13;2.88;;;1.50;;
22270;SDS011;11304;53.520;10.104;2023-11-19T03:46:39;2.03;;;1.83;;
22270;SDS011;11304;53.520;10.104;2023-11-19T03:49:05;2.47;;;1.92;;
22270;SDS011;11304;53.520;10.104;2023-11-19T03:51:32;6.00;;;2.15;;
22270;SDS011;11304;53.520;10.104;2023-11-19T03:53:59;2.70;;;2.05;;
22270;SDS011;11304;53.520;10.104;2023-11-19T03:56:25;2.08;;;1.88;;
22270;SDS011;11304;53.520;10.104;2023-11-19T03:58:52;2.65;;;1.98;;
22270;SDS011;11304;53.520;10.104;2023-11-19T04:01:19;2.80;;;2.15;;
22270;SDS011;11304;53.520;10.104;2023-11-19T04:03:45;2.80;;;2.20;;
22270;SDS011;11304;53.520;10.104;2023-11-19T04:06:11;2.92;;;2.10;;
22270;SDS011;11304;53.520;10.104;2023-11-19T04:08:37;3.17;;;2.22;;
22270;SDS011;11304;53.520;10.104;2023-11-19T04:11:03;3.72;;;2.65;;
22270;SDS011;11304;53.520;10.104;2023-11-19T04:13:30;2.92;;;2.50;;
22270;SDS011;11304;53.520;10.104;2023-11-19T04:15:56;2.95;;;2.33;;
22270;SDS011;11304;53.520;10.104;2023-11-19T04:18:22;3.60;;;2.42;;
22270;SDS011;11304;53.520;10.104;2023-11-19T04:20:48;2.78;;;2.35;;
22270;SDS011;11304;53.520;10.104;2023-11-19T04:23:15;2.92;;;2.33;;
22270;SDS011;11304;53.520;10.104;2023-11-19T04:25:41;2.90;;;2.55;;
22270;SDS011;11304;53.520;10.104;2023-11-19T04:28:08;4.05;;;2.50;;
22270;SDS011;11304;53.520;10.104;2023-11-19T04:30:34;3.53;;;2.28;;
22270;SDS011;11304;53.520;10.104;2023-11-19T04:33:00;3.55;;;2.90;;
22270;SDS011;11304;53.520;10.104;2023-11-19T04:35:26;4.65;;;2.47;;
22270;SDS011;11304;53.520;10.104;2023-11-19T04:37:53;3.20;;;2.88;;
22270;SDS011;11304;53.520;10.104;2023-11-19T04:40:22;6.97;;;3.10;;
22270;SDS011;11304;53.520;10.104;2023-11-19T04:42:48;2.70;;;2.22;;
22270;SDS011;11304;53.520;10.104;2023-11-19T04:45:14;5.03;;;2.90;;
22270;SDS011;11304;53.520;10.104;2023-11-19T04:47:41;5.22;;;2.70;;
22270;SDS011;11304;53.520;10.104;2023-11-19T04:50:07;4.00;;;2.78;;
22270;SDS011;11304;53.520;10.104;2023-11-19T04:52:38;2.97;;;2.22;;
22270;SDS011;11304;53.520;10.104;2023-11-19T04:55:10;3.67;;;2.80;;
22270;SDS011;11304;53.520;10.104;2023-11-19T04:57:36;3.58;;;2.90;;
22270;SDS011;11304;53.520;10.104;2023-11-19T05:00:03;4.10;;;3.20;;
22270;SDS011;11304;53.520;10.104;2023-11-19T05:02:30;4.60;;;3.40;;
22270;SDS011;11304;53.520;10.104;2023-11-19T05:04:56;4.20;;;3.10;;
22270;SDS011;11304;53.520;10.104;2023-11-19T05:07:22;3.90;;;3.33;;
22270;SDS011;11304;53.520;10.104;2023-11-19T05:09:48;7.53;;;3.85;;
22270;SDS011;11304;53.520;10.104;2023-11-19T05:12:14;6.18;;;3.92;;
22270;SDS011;11304;53.520;10.104;2023-11-19T05:14:40;7.82;;;3.92;;
22270;SDS011;11304;53.520;10.104;2023-11-19T05:17:14;5.88;;;4.00;;
22270;SDS011;11304;53.520;10.104;2023-11-19T05:19:40;7.60;;;4.60;;
22270;SDS011;11304;53.520;10.104;2023-11-19T05:22:06;5.15;;;4.47;;
22270;SDS011;11304;53.520;10.104;2023-11-19T05:24:32;6.32;;;5.30;;
22270;SDS011;11304;53.520;10.104;2023-11-19T05:26:59;9.60;;;5.15;;
22270;SDS011;11304;53.520;10.104;2023-11-19T05:29:25;5.97;;;4.80;;
22270;SDS011;11304;53.520;10.104;2023-11-19T05:31:51;5.57;;;4.85;;
22270;SDS011;11304;53.520;10.104;2023-11-19T05:34:17;6.28;;;4.45;;
22270;SDS011;11304;53.520;10.104;2023-11-19T05:36:43;6.78;;;5.13;;
22270;SDS011;11304;53.520;10.104;2023-11-19T05:39:09;7.32;;;5.07;;
22270;SDS011;11304;53.520;10.104;2023-11-19T05:41:36;6.95;;;5.25;;
22270;SDS011;11304;53.520;10.104;2023-11-19T05:44:02;7.13;;;5.30;;
22270;SDS011;11304;53.520;10.104;2023-11-19T05:46:29;6.65;;;5.32;;
22270;SDS011;11304;53.520;10.104;2023-11-19T05:48:55;8.60;;;5.60;;
22270;SDS011;11304;53.520;10.104;2023-11-19T05:51:22;7.68;;;5.53;;
22270;SDS011;11304;53.520;10.104;2023-11-19T05:53:49;7.63;;;5.40;;
22270;SDS011;11304;53.520;10.104;2023-11-19T05:56:15;7.47;;;5.50;;
22270;SDS011;11304;53.520;10.104;2023-11-19T05:58:46;8.98;;;5.93;;
22270;SDS011;11304;53.520;10.104;2023-11-19T06:01:14;8.10;;;6.18;;
22270;SDS011;11304;53.520;10.104;2023-11-19T06:03:40;7.35;;;6.53;;
22270;SDS011;11304;53.520;10.104;2023-11-19T06:06:08;7.22;;;5.93;;
22270;SDS011;11304;53.520;10.104;2023-11-19T06:08:34;7.55;;;6.32;;
22270;SDS011;11304;53.520;10.104;2023-11-19T06:11:01;12.32;;;7.15;;
22270;SDS011;11304;53.520;10.104;2023-11-19T06:13:27;10.43;;;7.22;;
22270;SDS011;11304;53.520;10.104;2023-11-19T06:15:55;10.13;;;7.43;;
22270;SDS011;11304;53.520;10.104;2023-11-19T06:18:22;13.82;;;7.82;;
22270;SDS011;11304;53.520;10.104;2023-11-19T06:20:48;24.25;;;13.32;;
22270;SDS011;11304;53.520;10.104;2023-11-19T06:23:14;31.02;;;14.45;;
22270;SDS011;11304;53.520;10.104;2023-11-19T06:25:41;50.40;;;19.23;;
22270;SDS011;11304;53.520;10.104;2023-11-19T06:28:07;48.75;;;18.73;;
22270;SDS011;11304;53.520;10.104;2023-11-19T06:30:33;47.38;;;18.25;;
22270;SDS011;11304;53.520;10.104;2023-11-19T06:33:01;52.75;;;18.27;;
22270;SDS011;11304;53.520;10.104;2023-11-19T06:35:28;41.17;;;17.30;;
22270;SDS011;11304;53.520;10.104;2023-11-19T06:38:01;46.63;;;16.58;;
22270;SDS011;11304;53.520;10.104;2023-11-19T06:40:27;39.67;;;15.77;;
22270;SDS011;11304;53.520;10.104;2023-11-19T06:42:54;43.70;;;15.45;;
22270;SDS011;11304;53.520;10.104;2023-11-19T06:45:21;39.97;;;14.27;;
22270;SDS011;11304;53.520;10.104;2023-11-19T06:47:47;48.72;;;14.45;;
22270;SDS011;11304;53.520;10.104;2023-11-19T06:50:13;40.47;;;13.95;;
22270;SDS011;11304;53.520;10.104;2023-11-19T06:52:40;41.40;;;13.73;;
22270;SDS011;11304;53.520;10.104;2023-11-19T06:55:06;36.72;;;13.40;;
22270;SDS011;11304;53.520;10.104;2023-11-19T06:57:32;37.17;;;12.70;;
22270;SDS011;11304;53.520;10.104;2023-11-19T06:59:59;39.95;;;11.85;;
22270;SDS011;11304;53.520;10.104;2023-11-19T07:02:25;36.22;;;11.02;;
22270;SDS011;11304;53.520;10.104;2023-11-19T07:04:51;34.10;;;9.73;;
22270;SDS011;11304;53.520;10.104;2023-11-19T07:07:17;27.33;;;9.52;;
22270;SDS011;11304;53.520;10.104;2023-11-19T07:09:43;32.42;;;9.10;;
22270;SDS011;11304;53.520;10.104;2023-11-19T07:12:09;33.78;;;8.60;;
22270;SDS011;11304;53.520;10.104;2023-11-19T07:14:35;31.67;;;8.75;;
22270;SDS011;11304;53.520;10.104;2023-11-19T07:17:01;26.17;;;7.63;;
22270;SDS011;11304;53.520;10.104;2023-11-19T07:19:28;30.63;;;8.27;;
22270;SDS011;11304;53.520;10.104;2023-11-19T07:21:54;28.33;;;7.60;;
22270;SDS011;11304;53.520;10.104;2023-11-19T07:24:21;29.98;;;7.88;;
22270;SDS011;11304;53.520;10.104;2023-11-19T07:26:47;30.35;;;7.63;;
22270;SDS011;11304;53.520;10.104;2023-11-19T07:29:14;23.10;;;6.65;;
22270;SDS011;11304;53.520;10.104;2023-11-19T07:31:41;23.50;;;6.18;;
22270;SDS011;11304;53.520;10.104;2023-11-19T07:34:09;27.13;;;6.78;;
22270;SDS011;11304;53.520;10.104;2023-11-19T07:36:36;20.73;;;5.57;;
22270;SDS011;11304;53.520;10.104;2023-11-19T07:39:03;23.20;;;5.35;;
22270;SDS011;11304;53.520;10.104;2023-11-19T07:41:30;24.42;;;6.07;;
22270;SDS011;11304;53.520;10.104;2023-11-19T07:43:56;24.52;;;5.38;;
22270;SDS011;11304;53.520;10.104;2023-11-19T07:46:22;28.50;;;5.97;;
22270;SDS011;11304;53.520;10.104;2023-11-19T07:48:50;24.33;;;5.72;;
22270;SDS011;11304;53.520;10.104;2023-11-19T07:51:16;24.98;;;5.80;;
22270;SDS011;11304;53.520;10.104;2023-11-19T07:53:42;27.45;;;5.57;;
22270;SDS011;11304;53.520;10.104;2023-11-19T07:56:08;35.53;;;7.40;;
22270;SDS011;11304;53.520;10.104;2023-11-19T07:58:35;35.92;;;6.53;;
22270;SDS011;11304;53.520;10.104;2023-11-19T08:01:01;34.03;;;6.63;;
22270;SDS011;11304;53.520;10.104;2023-11-19T08:03:27;26.13;;;5.85;;
22270;SDS011;11304;53.520;10.104;2023-11-19T08:05:57;33.00;;;6.65;;
22270;SDS011;11304;53.520;10.104;2023-11-19T08:08:23;26.48;;;5.43;;
22270;SDS011;11304;53.520;10.104;2023-11-19T08:10:49;28.42;;;5.85;;
22270;SDS011;11304;53.520;10.104;2023-11-19T08:13:21;31.95;;;5.53;;
22270;SDS011;11304;53.520;10.104;2023-11-19T08:15:47;36.17;;;6.78;;
22270;SDS011;11304;53.520;10.104;2023-11-19T08:18:13;35.83;;;5.82;;
22270;SDS011;11304;53.520;10.104;2023-11-19T08:20:39;33.55;;;6.40;;
22270;SDS011;11304;53.520;10.104;2023-11-19T08:23:06;28.50;;;5.53;;
22270;SDS011;11304;53.520;10.104;2023-11-19T08:25:32;40.70;;;6.20;;
22270;SDS011;11304;53.520;10.104;2023-11-19T08:27:59;34.42;;;6.40;;
22270;SDS011;11304;53.520;10.104;2023-11-19T08:30:25;42.75;;;6.43;;
22270;SDS011;11304;53.520;10.104;2023-11-19T08:32:52;34.47;;;6.22;;
22270;SDS011;11304;53.520;10.104;2023-11-19T08:35:18;36.58;;;6.35;;
22270;SDS011;11304;53.520;10.104;2023-11-19T08:37:44;34.40;;;5.65;;
22270;SDS011;11304;53.520;10.104;2023-11-19T08:40:11;36.72;;;6.05;;
22270;SDS011;11304;53.520;10.104;2023-11-19T08:45:06;30.02;;;5.35;;
22270;SDS011;11304;53.520;10.104;2023-11-19T08:47:35;35.63;;;5.57;;
22270;SDS011;11304;53.520;10.104;2023-11-19T08:50:01;38.95;;;6.78;;
22270;SDS011;11304;53.520;10.104;2023-11-19T08:52:29;33.75;;;5.53;;
22270;SDS011;11304;53.520;10.104;2023-11-19T08:54:55;32.55;;;6.28;;
22270;SDS011;11304;53.520;10.104;2023-11-19T08:57:21;35.47;;;6.47;;
22270;SDS011;11304;53.520;10.104;2023-11-19T08:59:47;30.50;;;5.55;;
22270;SDS011;11304;53.520;10.104;2023-11-19T09:02:13;32.95;;;6.60;;
22270;SDS011;11304;53.520;10.104;2023-11-19T09:04:39;33.92;;;6.28;;
22270;SDS011;11304;53.520;10.104;2023-11-19T09:07:06;37.17;;;6.88;;
22270;SDS011;11304;53.520;10.104;2023-11-19T09:09:34;39.45;;;6.82;;
22270;SDS011;11304;53.520;10.104;2023-11-19T09:12:01;36.25;;;6.22;;
22270;SDS011;11304;53.520;10.104;2023-11-19T09:14:28;32.03;;;6.65;;
22270;SDS011;11304;53.520;10.104;2023-11-19T09:16:55;29.63;;;5.45;;
22270;SDS011;11304;53.520;10.104;2023-11-19T09:19:21;39.60;;;6.75;;
22270;SDS011;11304;53.520;10.104;2023-11-19T09:21:47;35.75;;;5.97;;
22270;SDS011;11304;53.520;10.104;2023-11-19T09:24:14;36.05;;;6.80;;
22270;SDS011;11304;53.520;10.104;2023-11-19T09:26:40;37.10;;;6.32;;
22270;SDS011;11304;53.520;10.104;2023-11-19T09:29:10;36.30;;;6.85;;
22270;SDS011;11304;53.520;10.104;2023-11-19T09:31:37;41.38;;;6.90;;
22270;SDS011;11304;53.520;10.104;2023-11-19T09:34:04;38.38;;;6.13;;
22270;SDS011;11304;53.520;10.104;2023-11-19T09:36:30;36.22;;;6.32;;
22270;SDS011;11304;53.520;10.104;2023-11-19T09:38:56;39.92;;;7.10;;
22270;SDS011;11304;53.520;10.104;2023-11-19T09:41:25;48.30;;;7.88;;
22270;SDS011;11304;53.520;10.104;2023-11-19T09:43:53;34.00;;;6.43;;
22270;SDS011;11304;53.520;10.104;2023-11-19T09:46:19;36.95;;;7.35;;
22270;SDS011;11304;53.520;10.104;2023-11-19T09:48:45;31.40;;;6.78;;
22270;SDS011;11304;53.520;10.104;2023-11-19T09:51:13;35.30;;;6.95;;
22270;SDS011;11304;53.520;10.104;2023-11-19T09:53:39;41.30;;;6.80;;
22270;SDS011;11304;53.520;10.104;2023-11-19T09:56:06;40.17;;;6.68;;
22270;SDS011;11304;53.520;10.104;2023-11-19T09:58:35;37.92;;;6.85;;
22270;SDS011;11304;53.520;10.104;2023-11-19T10:01:01;38.80;;;7.15;;
22270;SDS011;11304;53.520;10.104;2023-11-19T10:03:35;37.78;;;6.85;;
22270;SDS011;11304;53.520;10.104;2023-11-19T10:06:08;33.78;;;6.22;;
22270;SDS011;11304;53.520;10.104;2023-11-19T10:08:37;37.63;;;7.25;;
22270;SDS011;11304;53.520;10.104;2023-11-19T10:11:06;36.42;;;6.47;;
22270;SDS011;11304;53.520;10.104;2023-11-19T10:13:34;39.38;;;6.78;;
22270;SDS011;11304;53.520;10.104;2023-11-19T10:16:07;39.78;;;8.20;;
22270;SDS011;11304;53.520;10.104;2023-11-19T10:18:33;34.25;;;7.50;;
22270;SDS011;11304;53.520;10.104;2023-11-19T10:21:03;40.45;;;7.45;;
22270;SDS011;11304;53.520;10.104;2023-11-19T10:23:30;32.58;;;6.57;;
22270;SDS011;11304;53.520;10.104;2023-11-19T10:26:03;32.55;;;6.60;;
22270;SDS011;11304;53.520;10.104;2023-11-19T10:28:38;38.47;;;6.70;;
22270;SDS011;11304;53.520;10.104;2023-11-19T10:31:11;36.00;;;6.30;;
22270;SDS011;11304;53.520;10.104;2023-11-19T10:33:38;33.55;;;6.78;;
22270;SDS011;11304;53.520;10.104;2023-11-19T10:36:04;31.70;;;6.35;;
22270;SDS011;11304;53.520;10.104;2023-11-19T10:38:30;39.50;;;7.70;;
22270;SDS011;11304;53.520;10.104;2023-11-19T10:40:56;44.47;;;7.32;;
22270;SDS011;11304;53.520;10.104;2023-11-19T10:43:23;36.08;;;6.38;;
22270;SDS011;11304;53.520;10.104;2023-11-19T10:45:50;43.25;;;8.05;;
22270;SDS011;11304;53.520;10.104;2023-11-19T10:48:16;38.70;;;7.20;;
22270;SDS011;11304;53.520;10.104;2023-11-19T10:50:43;41.00;;;7.15;;
22270;SDS011;11304;53.520;10.104;2023-11-19T10:53:11;38.20;;;6.25;;
22270;SDS011;11304;53.520;10.104;2023-11-19T10:55:43;35.50;;;6.45;;
22270;SDS011;11304;53.520;10.104;2023-11-19T10:58:12;36.58;;;6.55;;
22270;SDS011;11304;53.520;10.104;2023-11-19T11:00:45;36.53;;;7.30;;
22270;SDS011;11304;53.520;10.104;2023-11-19T11:03:17;34.80;;;6.60;;
22270;SDS011;11304;53.520;10.104;2023-11-19T11:05:43;29.48;;;6.25;;
22270;SDS011;11304;53.520;10.104;2023-11-19T11:08:12;33.58;;;7.10;;
22270;SDS011;11304;53.520;10.104;2023-11-19T11:10:56;35.05;;;6.82;;
22270;SDS011;11304;53.520;10.104;2023-11-19T11:13:24;36.60;;;6.60;;
22270;SDS011;11304;53.520;10.104;2023-11-19T11:15:50;36.50;;;6.57;;
22270;SDS011;11304;53.520;10.104;2023-11-19T11:18:17;41.28;;;6.75;;
22270;SDS011;11304;53.520;10.104;2023-11-19T11:20:46;35.00;;;7.57;;
22270;SDS011;11304;53.520;10.104;2023-11-19T11:23:33;42.25;;;7.43;;
22270;SDS011;11304;53.520;10.104;2023-11-19T11:28:52;34.15;;;6.80;;
22270;SDS011;11304;53.520;10.104;2023-11-19T11:34:06;33.10;;;5.88;;
22270;SDS011;11304;53.520;10.104;2023-11-19T11:39:16;29.65;;;6.68;;
22270;SDS011;11304;53.520;10.104;2023-11-19T11:41:43;37.88;;;7.20;;
22270;SDS011;11304;53.520;10.104;2023-11-19T11:44:10;35.55;;;7.03;;
22270;SDS011;11304;53.520;10.104;2023-11-19T11:49:05;32.58;;;7.35;;
22270;SDS011;11304;53.520;10.104;2023-11-19T11:52:14;37.33;;;7.93;;
22270;SDS011;11304;53.520;10.104;2023-11-19T11:57:02;39.28;;;7.00;;
22270;SDS011;11304;53.520;10.104;2023-11-19T12:02:11;43.20;;;7.25;;
22270;SDS011;11304;53.520;10.104;2023-11-19T12:04:38;35.92;;;6.97;;
22270;SDS011;11304;53.520;10.104;2023-11-19T12:09:31;35.75;;;6.72;;
22270;SDS011;11304;53.520;10.104;2023-11-19T12:12:09;32.63;;;6.28;;
22270;SDS011;11304;53.520;10.104;2023-11-19T12:20:05;29.63;;;5.65;;
22270;SDS011;11304;53.520;10.104;2023-11-19T12:22:39;31.67;;;5.95;;
22270;SDS011;11304;53.520;10.104;2023-11-19T12:25:06;32.13;;;6.38;;
22270;SDS011;11304;53.520;10.104;2023-11-19T12:27:33;39.70;;;6.43;;
22270;SDS011;11304;53.520;10.104;2023-11-19T12:30:00;36.72;;;6.32;;
22270;SDS011;11304;53.520;10.104;2023-11-19T12:32:26;39.42;;;6.57;;
22270;SDS011;11304;53.520;10.104;2023-11-19T12:34:52;33.90;;;7.00;;
22270;SDS011;11304;53.520;10.104;2023-11-19T12:37:18;31.35;;;6.95;;
22270;SDS011;11304;53.520;10.104;2023-11-19T12:39:44;37.70;;;6.72;;
22270;SDS011;11304;53.520;10.104;2023-11-19T12:42:10;32.65;;;6.85;;
22270;SDS011;11304;53.520;10.104;2023-11-19T12:44:37;34.78;;;6.63;;
22270;SDS011;11304;53.520;10.104;2023-11-19T12:47:04;35.42;;;6.47;;
22270;SDS011;11304;53.520;10.104;2023-11-19T12:49:31;26.98;;;5.22;;
22270;SDS011;11304;53.520;10.104;2023-11-19T12:51:58;35.50;;;6.53;;
22270;SDS011;11304;53.520;10.104;2023-11-19T12:54:31;36.63;;;7.00;;
22270;SDS011;11304;53.520;10.104;2023-11-19T12:56:57;35.83;;;6.20;;
22270;SDS011;11304;53.520;10.104;2023-11-19T12:59:24;39.22;;;6.72;;
22270;SDS011;11304;53.520;10.104;2023-11-19T13:01:55;35.88;;;6.97;;
22270;SDS011;11304;53.520;10.104;2023-11-19T13:04:21;34.75;;;6.82;;
22270;SDS011;11304;53.520;10.104;2023-11-19T13:06:47;35.67;;;5.93;;
22270;SDS011;11304;53.520;10.104;2023-11-19T13:11:52;39.88;;;6.80;;
22270;SDS011;11304;53.520;10.104;2023-11-19T13:14:18;35.72;;;6.25;;
22270;SDS011;11304;53.520;10.104;2023-11-19T13:16:44;33.58;;;6.00;;
22270;SDS011;11304;53.520;10.104;2023-11-19T13:19:12;29.88;;;5.72;;
22270;SDS011;11304;53.520;10.104;2023-11-19T13:21:38;31.00;;;5.45;;
22270;SDS011;11304;53.520;10.104;2023-11-19T13:24:07;37.65;;;6.50;;
22270;SDS011;11304;53.520;10.104;2023-11-19T13:26:34;30.45;;;5.93;;
22270;SDS011;11304;53.520;10.104;2023-11-19T13:29:00;39.97;;;6.97;;
22270;SDS011;11304;53.520;10.104;2023-11-19T13:31:26;30.73;;;5.95;;
22270;SDS011;11304;53.520;10.104;2023-11-19T13:33:53;28.25;;;6.22;;
22270;SDS011;11304;53.520;10.104;2023-11-19T13:36:19;29.52;;;5.60;;
22270;SDS011;11304;53.520;10.104;2023-11-19T13:38:45;36.88;;;6.20;;
22270;SDS011;11304;53.520;10.104;2023-11-19T13:41:11;33.30;;;6.50;;
22270;SDS011;11304;53.520;10.104;2023-11-19T13:43:38;29.58;;;6.40;;
22270;SDS011;11304;53.520;10.104;2023-11-19T13:46:05;30.00;;;5.35;;
22270;SDS011;11304;53.520;10.104;2023-11-19T13:48:31;30.45;;;6.38;;
22270;SDS011;11304;53.520;10.104;2023-11-19T13:50:57;34.17;;;6.55;;
22270;SDS011;11304;53.520;10.104;2023-11-19T13:53:23;27.58;;;6.07;;
22270;SDS011;11304;53.520;10.104;2023-11-19T13:55:49;36.20;;;6.32;;
22270;SDS011;11304;53.520;10.104;2023-11-19T13:58:15;31.98;;;6.50;;
22270;SDS011;11304;53.520;10.104;2023-11-19T14:00:42;33.13;;;6.38;;
22270;SDS011;11304;53.520;10.104;2023-11-19T14:03:08;33.72;;;6.15;;
22270;SDS011;11304;53.520;10.104;2023-11-19T14:05:37;28.90;;;5.72;;
22270;SDS011;11304;53.520;10.104;2023-11-19T14:08:05;29.33;;;5.38;;
22270;SDS011;11304;53.520;10.104;2023-11-19T14:10:36;29.50;;;5.95;;
22270;SDS011;11304;53.520;10.104;2023-11-19T14:13:04;30.85;;;5.90;;
22270;SDS011;11304;53.520;10.104;2023-11-19T14:15:30;28.65;;;5.90;;
22270;SDS011;11304;53.520;10.104;2023-11-19T14:17:56;33.47;;;5.93;;
22270;SDS011;11304;53.520;10.104;2023-11-19T14:20:22;30.27;;;6.38;;
22270;SDS011;11304;53.520;10.104;2023-11-19T14:22:49;36.05;;;6.63;;
22270;SDS011;11304;53.520;10.104;2023-11-19T14:25:16;33.15;;;5.50;;
22270;SDS011;11304;53.520;10.104;2023-11-19T14:27:43;26.60;;;5.32;;
22270;SDS011;11304;53.520;10.104;2023-11-19T14:30:10;31.95;;;6.25;;
22270;SDS011;11304;53.520;10.104;2023-11-19T14:32:37;31.95;;;6.35;;
22270;SDS011;11304;53.520;10.104;2023-11-19T14:35:03;26.35;;;4.90;;
22270;SDS011;11304;53.520;10.104;2023-11-19T14:37:30;30.75;;;6.85;;
22270;SDS011;11304;53.520;10.104;2023-11-19T14:39:57;33.60;;;6.53;;
22270;SDS011;11304;53.520;10.104;2023-11-19T14:42:23;26.45;;;5.43;;
22270;SDS011;11304;53.520;10.104;2023-11-19T14:44:53;31.23;;;5.93;;
22270;SDS011;11304;53.520;10.104;2023-11-19T14:47:21;29.33;;;5.68;;
22270;SDS011;11304;53.520;10.104;2023-11-19T14:49:48;32.92;;;5.50;;
22270;SDS011;11304;53.520;10.104;2023-11-19T14:52:14;30.17;;;5.60;;
22270;SDS011;11304;53.520;10.104;2023-11-19T14:54:40;23.88;;;5.22;;
22270;SDS011;11304;53.520;10.104;2023-11-19T14:57:06;25.63;;;4.45;;
22270;SDS011;11304;53.520;10.104;2023-11-19T14:59:35;25.52;;;5.13;;